Time;durP1;ratioP1;P1;durP2;ratioP2;P2;SDS_P1;SDS_P2;PMS_P1;PMS_P2;Temp;Humidity;BMP_temperature;BMP_pressure;BME280_temperature;BME280_humidity;BME280_pressure;Samples;Min_cycle;Max_cycle;Signal;HPM_P1;HPM_P2
2023/06/28 00:00:25;;;;;;;6.80;4.50;;;;;;;11.66;100.00;98666.91;4172871;28;20113;-72
2023/06/28 00:02:26;;;;;;;8.40;4.60;;;;;;;11.64;100.00;98663.75;4172688;28;20051;-72
2023/06/28 00:04:26;;;;;;;10.15;5.47;;;;;;;11.60;100.00;98670.44;4173433;28;20053;-72
2023/06/28 00:06:26;;;;;;;6.28;4.85;;;;;;;11.60;100.00;98671.25;4173759;28;20072;-72
2023/06/28 00:08:27;;;;;;;8.57;5.20;;;;;;;11.58;100.00;98672.78;4171049;28;20110;-72
2023/06/28 00:10:27;;;;;;;9.88;5.53;;;;;;;11.52;100.00;98678.69;4186339;28;20086;-72
2023/06/28 00:12:29;;;;;;;8.52;5.18;;;;;;;11.50;100.00;98680.22;4175953;28;20048;-72
2023/06/28 00:14:29;;;;;;;6.07;4.50;;;;;;;11.47;100.00;98678.22;4174700;28;20061;-72
2023/06/28 00:16:30;;;;;;;9.63;4.65;;;;;;;11.51;100.00;98674.31;4172245;28;20117;-72
2023/06/28 00:18:32;;;;;;;8.45;4.82;;;;;;;11.53;100.00;98676.69;4172753;28;20037;-72
2023/06/28 00:20:33;;;;;;;;;;;;;;;11.56;100.00;98689.78;4189071;28;20055;-72
2023/06/28 00:22:34;;;;;;;7.40;5.22;;;;;;;11.55;100.00;98685.44;4188615;28;19951;-72
2023/06/28 00:24:34;;;;;;;7.57;5.07;;;;;;;11.51;100.00;98681.84;4178952;28;20442;-72
2023/06/28 00:26:35;;;;;;;6.18;5.13;;;;;;;11.38;100.00;98686.81;4178301;28;20044;-72
2023/06/28 00:28:35;;;;;;;7.28;4.55;;;;;;;11.36;100.00;98680.06;4189788;28;20511;-71
2023/06/28 00:30:35;;;;;;;7.90;4.82;;;;;;;11.20;100.00;98677.50;4189378;28;20344;-72
2023/06/28 00:32:36;;;;;;;9.27;5.22;;;;;;;11.11;100.00;98690.84;4189708;28;20044;-72
2023/06/28 00:34:36;;;;;;;6.72;4.93;;;;;;;11.03;100.00;98680.84;4190025;28;20056;-72
2023/06/28 00:36:36;;;;;;;7.28;4.20;;;;;;;11.08;100.00;98683.28;4189230;28;20665;-72
2023/06/28 00:38:37;;;;;;;5.82;4.57;;;;;;;11.07;100.00;98682.47;4190184;28;20041;-72
2023/06/28 00:40:37;;;;;;;9.38;5.03;;;;;;;11.10;100.00;98684.50;4179042;28;20365;-72
2023/06/28 00:42:37;;;;;;;6.55;4.55;;;;;;;11.17;100.00;98678.25;4177451;28;20457;-72
2023/06/28 00:44:38;;;;;;;6.07;4.57;;;;;;;11.18;100.00;98679.88;4178803;28;20051;-72
2023/06/28 00:46:38;;;;;;;10.85;5.78;;;;;;;11.10;100.00;98678.97;4175377;28;20047;-72
2023/06/28 00:48:38;;;;;;;6.15;4.95;;;;;;;10.99;100.00;98678.03;4174342;28;20067;-72
2023/06/28 00:50:39;;;;;;;8.82;5.07;;;;;;;10.91;100.00;98673.56;4174785;28;20102;-72
2023/06/28 00:52:40;;;;;;;8.10;5.10;;;;;;;10.88;100.00;98668.78;4175657;28;20242;-72
2023/06/28 00:54:40;;;;;;;9.32;5.72;;;;;;;10.82;100.00;98673.06;4174813;28;20052;-72
2023/06/28 00:56:42;;;;;;;6.38;5.45;;;;;;;10.77;100.00;98681.69;4179000;28;20045;-72
2023/06/28 00:58:42;;;;;;;7.22;5.35;;;;;;;10.74;100.00;98674.91;4178680;28;20135;-72
2023/06/28 01:00:45;;;;;;;8.82;4.90;;;;;;;10.69;100.00;98683.56;4177362;28;20068;-72
2023/06/28 01:02:45;;;;;;;;;;;;;;;10.69;100.00;98686.34;4183476;28;20469;-72
2023/06/28 01:04:46;;;;;;;9.93;4.72;;;;;;;10.66;100.00;98684.28;4181590;28;19923;-72
2023/06/28 01:06:54;;;;;;;7.20;4.78;;;;;;;10.63;100.00;98690.59;4176050;28;20166;-72
2023/06/28 01:08:54;;;;;;;7.75;4.93;;;;;;;10.63;100.00;98698.88;4174424;28;20045;-71
2023/06/28 01:10:55;;;;;;;5.47;4.68;;;;;;;10.60;100.00;98697.69;4178717;28;20041;-72
2023/06/28 01:12:56;;;;;;;6.35;4.43;;;;;;;10.58;100.00;98702.75;4173586;28;20094;-72
2023/06/28 01:14:56;;;;;;;7.55;4.45;;;;;;;10.57;100.00;98703.94;4174755;28;20053;-72
2023/06/28 01:16:57;;;;;;;7.65;5.45;;;;;;;10.57;100.00;98703.94;4178023;28;20075;-72
2023/06/28 01:18:57;;;;;;;12.60;4.82;;;;;;;10.57;100.00;98706.69;4175743;28;20056;-72
2023/06/28 01:20:58;;;;;;;7.82;5.32;;;;;;;10.60;100.00;98697.69;4174582;28;20119;-72
2023/06/28 01:22:58;;;;;;;8.30;4.40;;;;;;;10.64;100.00;98701.28;4173013;28;20049;-72
2023/06/28 01:24:59;;;;;;;10.00;4.97;;;;;;;10.72;100.00;98710.47;4173932;28;20048;-72
2023/06/28 01:27:00;;;;;;;7.05;4.93;;;;;;;10.68;100.00;98715.19;4178804;28;20045;-72
2023/06/28 01:29:01;;;;;;;8.88;5.10;;;;;;;10.67;100.00;98711.63;4181928;28;20044;-72
2023/06/28 01:31:03;;;;;;;9.13;5.60;;;;;;;10.69;100.00;98723.09;4189489;28;20037;-72
2023/06/28 01:33:04;;;;;;;10.90;5.53;;;;;;;10.69;100.00;98717.56;4172942;28;20052;-72
2023/06/28 01:35:04;;;;;;;11.07;6.28;;;;;;;10.66;100.00;98718.28;4174554;28;20132;-72
2023/06/28 01:37:05;;;;;;;10.30;6.00;;;;;;;10.62;100.00;98714.69;4175853;28;20068;-72
2023/06/28 01:39:05;;;;;;;9.77;5.20;;;;;;;10.59;100.00;98706.31;4181000;28;20051;-72
2023/06/28 01:41:07;;;;;;;8.73;5.20;;;;;;;10.58;100.00;98719.34;4174419;28;20124;-72
2023/06/28 01:43:08;;;;;;;10.75;5.40;;;;;;;10.48;100.00;98710.91;4174787;28;20064;-72
2023/06/28 01:45:09;;;;;;;8.93;4.57;;;;;;;10.49;100.00;98710.53;4184311;28;20040;-72
2023/06/28 01:47:09;;;;;;;9.55;4.65;;;;;;;10.50;100.00;98711.31;4173359;28;20486;-72
2023/06/28 01:49:11;;;;;;;8.23;5.47;;;;;;;10.40;100.00;98710.00;4173905;28;20452;-72
2023/06/28 01:51:11;;;;;;;8.15;4.82;;;;;;;10.36;100.00;98709.16;4181910;28;20068;-72
2023/06/28 01:53:12;;;;;;;8.45;4.70;;;;;;;10.34;100.00;98719.75;4185814;28;20028;-72
2023/06/28 01:55:12;;;;;;;6.72;4.95;;;;;;;10.26;100.00;98720.81;4187806;28;20098;-72
2023/06/28 01:57:12;;;;;;;8.57;5.78;;;;;;;10.20;100.00;98722.28;4174178;28;20455;-72
2023/06/28 01:59:13;;;;;;;14.38;5.75;;;;;;;10.19;100.00;98718.72;4174093;28;20419;-72
2023/06/28 02:01:13;;;;;;;9.20;5.22;;;;;;;10.21;100.00;98721.13;4176072;28;20045;-72
2023/06/28 02:03:14;;;;;;;7.75;4.72;;;;;;;10.22;100.00;98723.53;4187509;28;20072;-72
2023/06/28 02:05:14;;;;;;;7.53;5.05;;;;;;;10.19;100.00;98710.44;4186409;28;20047;-72
2023/06/28 02:07:14;;;;;;;8.85;4.72;;;;;;;10.18;100.00;98728.19;4173985;28;20587;-72
2023/06/28 02:09:15;;;;;;;10.45;5.63;;;;;;;10.05;100.00;98722.03;4173920;28;20069;-72
2023/06/28 02:11:15;;;;;;;13.63;5.75;;;;;;;10.03;100.00;98721.63;4178320;28;20036;-71
2023/06/28 02:13:15;;;;;;;7.93;5.07;;;;;;;10.04;100.00;98730.69;4175409;28;20057;-72
2023/06/28 02:15:16;;;;;;;9.68;5.32;;;;;;;9.99;100.00;98731.00;4174323;28;20060;-72
2023/06/28 02:17:17;;;;;;;7.80;4.32;;;;;;;9.98;100.00;98723.88;4173726;28;20588;-72
2023/06/28 02:19:18;;;;;;;5.88;4.28;;;;;;;10.03;100.00;98729.09;4182959;28;20036;-72
2023/06/28 02:21:19;;;;;;;5.55;4.35;;;;;;;10.08;100.00;98723.25;4178671;28;20044;-72
2023/06/28 02:23:22;;;;;;;7.53;4.78;;;;;;;10.09;100.00;98730.38;4172919;28;20492;-72
2023/06/28 02:25:22;;;;;;;6.80;4.35;;;;;;;10.09;100.00;98733.97;4178936;28;20044;-72
2023/06/28 02:27:22;;;;;;;8.02;6.20;;;;;;;10.00;100.00;98733.38;4187628;28;20384;-72
2023/06/28 02:29:23;;;;;;;8.43;5.30;;;;;;;9.90;100.00;98733.19;4178342;28;20392;-72
2023/06/28 02:31:23;;;;;;;9.70;4.80;;;;;;;9.83;100.00;98734.66;4174626;28;20132;-71
2023/06/28 02:33:23;;;;;;;5.72;5.07;;;;;;;9.82;100.00;98732.28;4174234;28;20469;-72
2023/06/28 02:35:24;;;;;;;8.32;4.35;;;;;;;9.77;100.00;98736.16;4178289;28;20041;-72
2023/06/28 02:37:25;;;;;;;5.85;4.70;;;;;;;9.73;100.00;98726.97;4173364;28;20048;-72
2023/06/28 02:39:25;;;;;;;6.20;4.43;;;;;;;9.73;100.00;98731.72;4173086;28;20041;-72
2023/06/28 02:41:25;;;;;;;6.50;4.43;;;;;;;9.66;100.00;98726.84;4171476;28;20076;-72
2023/06/28 02:43:26;;;;;;;9.43;5.00;;;;;;;9.64;100.00;98723.66;4172497;28;20697;-71
2023/06/28 02:45:26;;;;;;;9.82;4.30;;;;;;;9.60;100.00;98721.97;4178387;28;20076;-72
2023/06/28 02:47:27;;;;;;;14.80;5.55;;;;;;;9.63;100.00;98732.31;4173086;28;20127;-72
2023/06/28 02:49:27;;;;;;;10.95;5.07;;;;;;;9.60;100.00;98725.56;4175167;28;20175;-72
2023/06/28 02:51:27;;;;;;;11.75;5.03;;;;;;;9.60;100.00;98733.84;4174867;28;20375;-72
2023/06/28 02:53:28;;;;;;;9.68;4.95;;;;;;;9.58;100.00;98742.47;4175531;28;20048;-72
2023/06/28 02:55:28;;;;;;;15.07;5.68;;;;;;;9.57;100.00;98738.13;4171856;28;20057;-72
2023/06/28 02:57:29;;;;;;;10.77;4.80;;;;;;;9.56;100.00;98731.00;4174230;28;20060;-72
2023/06/28 02:59:29;;;;;;;13.77;5.78;;;;;;;9.59;100.00;98740.50;4176897;28;20055;-72
2023/06/28 03:01:30;;;;;;;12.20;5.38;;;;;;;9.54;100.00;98740.84;4175293;28;20049;-72
2023/06/28 03:03:33;;;;;;;12.10;4.60;;;;;;;9.49;100.00;98743.88;4176469;28;20063;-72
2023/06/28 03:05:33;;;;;;;12.18;5.07;;;;;;;9.42;100.00;98736.25;4173820;28;20614;-72
2023/06/28 03:07:33;;;;;;;6.80;4.55;;;;;;;9.39;100.00;98739.75;4175367;28;20041;-72
2023/06/28 03:09:34;;;;;;;8.63;5.93;;;;;;;9.35;100.00;98740.81;4176345;28;20049;-72
2023/06/28 03:11:34;;;;;;;9.75;4.60;;;;;;;9.33;100.00;98737.63;4178145;28;20049;-72
2023/06/28 03:13:35;;;;;;;9.55;4.53;;;;;;;9.31;100.00;98739.97;4176524;28;20150;-72
2023/06/28 03:15:35;;;;;;;14.55;4.60;;;;;;;9.33;100.00;98732.09;4174687;28;20374;-72
2023/06/28 03:17:35;;;;;;;16.20;4.60;;;;;;;9.32;100.00;98739.59;4172413;28;20033;-71
2023/06/28 03:19:36;;;;;;;8.98;4.63;;;;;;;9.32;100.00;98744.31;4171747;28;20056;-72
2023/06/28 03:21:37;;;;;;;8.88;3.90;;;;;;;9.37;100.00;98735.75;4172548;28;20033;-71
2023/06/28 03:23:38;;;;;;;10.38;4.32;;;;;;;9.36;100.00;98746.00;4171141;28;20102;-71
2023/06/28 03:25:38;;;;;;;12.65;5.50;;;;;;;9.24;100.00;98743.38;4177415;28;20177;-71
2023/06/28 03:27:38;;;;;;;9.02;4.35;;;;;;;9.15;100.00;98751.06;4174644;28;20488;-71
2023/06/28 03:29:39;;;;;;;7.65;4.10;;;;;;;9.14;100.00;98744.75;4173114;28;20037;-71
2023/06/28 03:31:39;;;;;;;9.73;4.65;;;;;;;9.05;100.00;98754.41;4173162;28;20079;-72
2023/06/28 03:33:40;;;;;;;10.43;4.60;;;;;;;9.03;100.00;98762.25;4175964;28;20048;-72
2023/06/28 03:35:40;;;;;;;8.05;4.50;;;;;;;8.97;100.00;98751.47;4179974;28;20139;-72
2023/06/28 03:37:49;;;;;;;15.68;4.72;;;;;;;9.03;100.00;98759.50;4178770;28;20037;-72
2023/06/28 03:39:49;;;;;;;7.75;3.80;;;;;;;9.06;100.00;98756.78;4175837;28;20511;-71
2023/06/28 03:41:49;;;;;;;18.52;5.13;;;;;;;9.10;100.00;98754.09;4173043;28;20051;-72
2023/06/28 03:43:50;;;;;;;9.73;4.20;;;;;;;9.09;100.00;98756.06;4171153;28;20065;-71
2023/06/28 03:45:50;;;;;;;5.05;4.53;;;;;;;9.15;100.00;98749.09;4175248;28;20385;-72
2023/06/28 03:47:51;;;;;;;9.77;4.28;;;;;;;9.21;100.00;98755.94;4174594;28;20199;-71
2023/06/28 03:49:51;;;;;;;6.60;4.05;;;;;;;9.30;100.00;98755.72;4171443;28;20483;-71
2023/06/28 03:51:51;;;;;;;8.27;4.10;;;;;;;9.35;100.00;98746.34;4172718;28;20403;-71
2023/06/28 03:53:52;;;;;;;13.15;3.88;;;;;;;9.44;100.00;98764.31;4186527;28;20055;-71
2023/06/28 03:55:53;;;;;;;7.90;4.00;;;;;;;9.51;100.00;98755.34;4181274;28;20061;-71
2023/06/28 03:57:53;;;;;;;9.55;3.97;;;;;;;9.54;100.00;98736.09;4175288;28;20058;-71
2023/06/28 03:59:53;;;;;;;8.85;3.65;;;;;;;9.69;100.00;98742.72;4188159;28;20079;-71
2023/06/28 04:01:54;;;;;;;7.22;4.03;;;;;;;9.77;100.00;98751.94;4190534;28;20076;-71
2023/06/28 04:03:54;;;;;;;6.55;3.92;;;;;;;9.84;100.00;98752.03;4182512;28;20129;-71
2023/06/28 04:05:54;;;;;;;8.80;4.80;;;;;;;9.75;100.00;98741.22;4182116;28;20466;-71
2023/06/28 04:07:57;;;;;;;10.05;5.53;;;;;;;9.69;100.00;98750.19;4175622;28;20076;-71
2023/06/28 04:09:58;;;;;;;9.38;4.35;;;;;;;9.64;100.00;98747.72;4187225;28;20432;-71
2023/06/28 04:11:59;;;;;;;10.18;4.00;;;;;;;9.64;100.00;98739.44;4186965;28;20049;-71
2023/06/28 04:13:59;;;;;;;8.90;3.78;;;;;;;9.68;100.00;98754.09;4179229;28;20094;-72
2023/06/28 04:15:59;;;;;;;7.00;4.00;;;;;;;9.75;100.00;98749.50;4189777;28;20048;-72
2023/06/28 04:18:00;;;;;;;10.40;4.18;;;;;;;9.82;100.00;98749.66;4179866;28;20056;-72
2023/06/28 04:20:00;;;;;;;10.02;4.30;;;;;;;9.87;100.00;98745.81;4186656;28;20162;-71
2023/06/28 04:22:00;;;;;;;12.32;4.43;;;;;;;9.96;100.00;98748.31;4189867;28;20044;-72
2023/06/28 04:24:01;;;;;;;8.98;3.90;;;;;;;10.05;100.00;98751.66;4182690;28;20049;-71
2023/06/28 04:26:02;;;;;;;7.00;4.28;;;;;;;10.07;100.00;98741.81;4189744;28;20127;-72
2023/06/28 04:28:03;;;;;;;7.15;4.20;;;;;;;10.16;100.00;98743.53;4187001;28;20475;-72
2023/06/28 04:30:04;;;;;;;6.95;3.90;;;;;;;10.22;100.00;98750.34;4186711;28;20039;-72
2023/06/28 04:32:21;;;;;;;11.07;4.97;;;;;;;10.26;100.00;98749.28;4183479;28;20041;-72
2023/06/28 04:34:21;;;;;;;9.55;5.28;;;;;;;10.37;100.00;98755.00;4183523;28;20139;-72
2023/06/28 04:36:22;;;;;;;11.13;4.85;;;;;;;10.44;100.00;98746.81;4185992;28;20141;-72
2023/06/28 04:38:23;;;;;;;8.20;3.92;;;;;;;10.57;100.00;98752.94;4174370;28;20051;-72
2023/06/28 04:40:23;;;;;;;8.57;3.80;;;;;;;10.67;100.00;98753.13;4189287;28;20086;-71
2023/06/28 04:42:24;;;;;;;10.80;4.15;;;;;;;10.80;100.00;98755.66;4178423;28;20032;-72
2023/06/28 04:44:25;;;;;;;6.40;3.40;;;;;;;10.90;100.00;98753.06;4177482;28;20076;-72
2023/06/28 04:46:28;;;;;;;6.85;3.70;;;;;;;10.97;100.00;98753.16;4175164;28;20029;-72
2023/06/28 04:48:29;;;;;;;5.72;4.20;;;;;;;11.05;100.00;98756.03;4174926;28;20048;-72
2023/06/28 04:50:29;;;;;;;6.22;4.20;;;;;;;11.07;100.00;98756.44;4175687;28;20641;-71
2023/06/28 04:52:29;;;;;;;8.10;3.80;;;;;;;11.16;100.00;98756.97;4173854;28;20053;-72
2023/06/28 04:54:30;;;;;;;6.28;3.30;;;;;;;11.22;100.00;98764.56;4182083;28;20060;-72
2023/06/28 04:56:30;;;;;;;7.93;3.40;;;;;;;11.27;100.00;98757.13;4174943;28;20076;-72
2023/06/28 04:58:30;;;;;;;5.80;3.80;;;;;;;11.36;100.00;98754.88;4145507;28;20045;-72
2023/06/28 05:00:32;;;;;;;6.82;3.60;;;;;;;11.46;100.00;98759.72;4174967;28;20051;-72
2023/06/28 05:02:33;;;;;;;4.85;3.63;;;;;;;11.55;100.00;98765.78;4180260;28;20429;-72
2023/06/28 05:04:33;;;;;;;5.72;3.15;;;;;;;11.64;100.00;98766.28;4178891;28;20041;-71
2023/06/28 05:06:35;;;;;;;6.85;3.38;;;;;;;11.74;100.00;98768.38;4183844;28;20820;-71
2023/06/28 05:08:36;;;;;;;7.17;3.90;;;;;;;11.83;100.00;98754.25;4188459;28;20045;-71
2023/06/28 05:10:36;;;;;;;4.72;3.42;;;;;;;11.94;100.00;98754.38;4186379;28;20436;-72
2023/06/28 05:12:37;;;;;;;6.53;3.75;;;;;;;12.03;100.00;98757.63;4174051;28;20044;-71
2023/06/28 05:14:37;;;;;;;4.60;3.38;;;;;;;12.13;100.00;98756.13;4182289;28;20056;-72
2023/06/28 05:16:37;;;;;;;4.10;3.60;;;;;;;12.22;100.00;98760.19;4175787;28;20469;-71
2023/06/28 05:18:37;;;;;;;6.68;3.72;;;;;;;12.29;100.00;98771.38;4182257;28;20029;-72
2023/06/28 05:20:38;;;;;;;5.78;3.78;;;;;;;12.37;100.00;98761.91;4174635;28;20052;-71
2023/06/28 05:22:47;;;;;;;5.53;3.88;;;;;;;12.44;100.00;98763.97;4173881;28;20408;-72
2023/06/28 05:24:48;;;;;;;4.85;3.58;;;;;;;12.54;100.00;98771.56;4183258;28;20044;-72
2023/06/28 05:26:48;;;;;;;5.47;3.58;;;;;;;12.62;100.00;98769.66;4187181;28;20045;-72
2023/06/28 05:28:49;;;;;;;6.03;3.88;;;;;;;12.70;100.00;98762.97;4187305;28;20472;-72
2023/06/28 05:30:49;;;;;;;8.13;3.95;;;;;;;12.76;100.00;98767.00;4187352;28;20241;-72
2023/06/28 05:32:49;;;;;;;5.47;3.15;;;;;;;12.82;100.00;98765.44;4188731;28;20063;-72
2023/06/28 05:34:50;;;;;;;6.22;3.70;;;;;;;12.90;100.00;98772.63;4178082;28;20049;-72
2023/06/28 05:36:50;;;;;;;6.38;4.10;;;;;;;12.95;100.00;98768.72;4173474;28;20045;-72
2023/06/28 05:38:52;;;;;;;9.70;4.07;;;;;;;12.98;100.00;98767.13;4189322;28;20221;-72
2023/06/28 05:40:54;;;;;;;6.93;4.25;;;;;;;13.02;100.00;98771.53;4183633;28;20519;-72
2023/06/28 05:42:55;;;;;;;5.05;3.60;;;;;;;13.10;100.00;98778.72;4172124;28;20057;-72
2023/06/28 05:44:55;;;;;;;4.82;3.35;;;;;;;13.16;100.00;98777.19;4177033;28;20325;-72
2023/06/28 05:46:56;;;;;;;7.70;3.40;;;;;;;13.19;100.00;98770.88;4173010;28;20041;-72
2023/06/28 05:48:58;;;;;;;6.50;4.10;;;;;;;13.29;100.00;98774.09;4172948;28;20075;-72
2023/06/28 05:50:58;;;;;;;7.68;3.67;;;;;;;13.33;100.00;98772.94;4179484;28;20500;-72
2023/06/28 05:52:59;;;;;;;8.13;3.83;;;;;;;13.41;100.00;98774.56;4171992;28;20138;-72
2023/06/28 05:54:59;;;;;;;6.93;3.60;;;;;;;13.52;100.00;98776.59;4173032;28;20489;-72
2023/06/28 05:56:59;;;;;;;6.15;3.20;;;;;;;13.58;100.00;98773.06;4182538;28;20044;-72
2023/06/28 05:59:00;;;;;;;5.35;3.33;;;;;;;13.61;100.00;98772.25;4189182;28;20460;-72
2023/06/28 06:01:01;;;;;;;4.50;3.20;;;;;;;13.69;100.00;98773.88;4174646;28;20083;-72
2023/06/28 06:03:02;;;;;;;6.63;3.47;;;;;;;13.75;100.00;98774.31;4173079;28;20045;-72
2023/06/28 06:05:03;;;;;;;5.68;3.25;;;;;;;13.81;100.00;98769.94;4173755;28;20052;-72
2023/06/28 06:07:04;;;;;;;7.60;3.15;;;;;;;13.93;100.00;98772.38;4173682;28;20070;-72
2023/06/28 06:09:04;;;;;;;5.88;3.53;;;;;;;13.99;100.00;98767.25;4173667;28;20072;-72
2023/06/28 06:11:05;;;;;;;11.48;3.28;;;;;;;14.11;100.00;98771.63;4178575;28;20072;-72
2023/06/28 06:13:05;;;;;;;6.28;3.20;;;;;;;14.13;100.00;98767.25;4188592;28;20063;-72
2023/06/28 06:15:06;;;;;;;7.32;3.38;;;;;;;14.21;100.00;98773.63;4177892;28;20068;-72
2023/06/28 06:17:06;;;;;;;4.97;3.28;;;;;;;14.28;100.00;98770.84;4173652;28;20060;-72
2023/06/28 06:19:07;;;;;;;4.35;2.80;;;;;;;14.37;100.00;98770.47;4173424;28;20036;-72
2023/06/28 06:21:07;;;;;;;8.13;2.70;;;;;;;14.47;100.00;98764.13;4173502;28;20029;-72
2023/06/28 06:23:07;;;;;;;8.48;2.85;;;;;;;14.54;100.00;98764.13;4172714;28;20393;-72
2023/06/28 06:25:08;;;;;;;4.68;2.90;;;;;;;14.59;100.00;98766.53;4187216;28;20124;-72
2023/06/28 06:27:09;;;;;;;4.75;3.08;;;;;;;14.68;100.00;98768.91;4189267;28;20032;-72
2023/06/28 06:29:09;;;;;;;4.60;2.45;;;;;;;14.77;100.00;98770.09;4180475;28;20037;-72
2023/06/28 06:31:14;;;;;;;4.70;2.38;;;;;;;14.78;100.00;98762.53;4173510;28;20041;-72
2023/06/28 06:33:14;;;;;;;5.05;1.90;;;;;;;14.83;100.00;98759.38;4172673;28;20049;-72
2023/06/28 06:35:14;;;;;;;5.30;2.70;;;;;;;14.82;100.00;98761.34;4173315;28;20041;-72
2023/06/28 06:37:15;;;;;;;4.00;1.90;;;;;;;14.85;100.00;98760.53;4179272;28;20193;-72
2023/06/28 06:39:15;;;;;;;4.63;1.80;;;;;;;14.98;100.00;98766.50;4181505;28;20171;-72
2023/06/28 06:41:15;;;;;;;2.78;1.75;;;;;;;15.04;100.00;98762.09;4188938;28;20036;-72
2023/06/28 06:43:15;;;;;;;3.55;1.95;;;;;;;14.99;100.00;98772.88;4186975;28;20067;-72
2023/06/28 06:45:19;;;;;;;10.05;2.33;;;;;;;14.98;100.00;98769.31;4185213;28;20040;-72
2023/06/28 06:47:19;;;;;;;8.05;3.25;;;;;;;14.97;100.00;98772.47;4172826;28;20049;-72
2023/06/28 06:49:20;;;;;;;4.25;2.20;;;;;;;14.89;100.00;98761.34;4175013;28;20136;-72
2023/06/28 06:51:21;;;;;;;3.42;2.08;;;;;;;14.97;100.00;98764.09;4188106;28;20033;-72
2023/06/28 06:53:21;;;;;;;2.92;1.90;;;;;;;15.02;100.00;98769.28;4186862;28;20041;-72
2023/06/28 06:55:23;;;;;;;6.22;2.20;;;;;;;15.07;100.00;98766.09;4188158;28;20109;-72
2023/06/28 06:57:23;;;;;;;3.80;2.27;;;;;;;15.18;100.00;98776.00;4187502;28;20044;-72
2023/06/28 06:59:23;;;;;;;3.28;2.28;;;;;;;15.18;100.00;98778.00;4187462;28;20532;-72
2023/06/28 07:01:23;;;;;;;3.65;2.13;;;;;;;15.13;100.00;98767.25;4173405;28;20057;-72
2023/06/28 07:03:24;;;;;;;4.97;2.22;;;;;;;15.24;100.00;98773.63;4172259;28;20098;-72
2023/06/28 07:05:25;;;;;;;5.18;2.33;;;;;;;15.26;100.00;98773.22;4173398;28;20075;-72
2023/06/28 07:07:25;;;;;;;4.63;2.30;;;;;;;15.37;100.00;98769.19;4174293;28;20075;-72
2023/06/28 07:09:26;;;;;;;4.28;2.15;;;;;;;15.44;100.00;98776.75;4187841;28;20044;-72
2023/06/28 07:11:27;;;;;;;4.45;2.20;;;;;;;15.55;100.00;98774.69;4188329;28;20045;-72
2023/06/28 07:13:27;;;;;;;7.70;2.30;;;;;;;15.68;100.00;98775.09;4177692;28;20477;-72
2023/06/28 07:15:28;;;;;;;4.13;2.53;;;;;;;15.70;100.00;98779.06;4172968;28;20570;-72
2023/06/28 07:17:28;;;;;;;8.63;2.58;;;;;;;15.72;100.00;98775.84;4173611;28;20203;-72
2023/06/28 07:19:28;;;;;;;4.95;2.30;;;;;;;15.81;100.00;98775.44;4172797;28;20463;-72
2023/06/28 07:21:29;;;;;;;4.03;2.70;;;;;;;15.86;100.00;98769.41;4172516;28;20099;-72
2023/06/28 07:23:29;;;;;;;7.57;2.55;;;;;;;15.95;100.00;98767.78;4175842;28;20049;-72
2023/06/28 07:25:32;;;;;;;5.75;2.60;;;;;;;16.05;100.00;98774.50;4187096;28;20111;-72
2023/06/28 07:27:32;;;;;;;6.55;2.72;;;;;;;15.91;100.00;98771.81;4188205;28;20472;-72
2023/06/28 07:29:33;;;;;;;4.60;2.72;;;;;;;15.97;100.00;98773.75;4188449;28;20043;-72
2023/06/28 07:31:33;;;;;;;4.28;2.70;;;;;;;16.01;100.00;98766.16;4175889;28;20045;-72
2023/06/28 07:33:34;;;;;;;4.40;2.40;;;;;;;16.16;100.00;98772.44;4175501;28;20336;-72
2023/06/28 07:35:34;;;;;;;10.27;3.08;;;;;;;16.25;100.00;98769.19;4175790;28;20419;-72
2023/06/28 07:37:35;;;;;;;3.22;2.40;;;;;;;16.33;100.00;98772.75;4175444;28;20036;-72
2023/06/28 07:39:35;;;;;;;6.32;3.17;;;;;;;16.16;100.00;98778.03;4189909;28;20476;-72
2023/06/28 07:41:36;;;;;;;3.45;2.38;;;;;;;16.11;100.00;98766.50;4191264;28;20037;-72
2023/06/28 07:43:36;;;;;;;5.03;2.15;;;;;;;16.20;100.00;98762.03;4190867;28;20072;-72
2023/06/28 07:45:36;;;;;;;5.88;2.70;;;;;;;16.40;100.00;98764.31;4185716;28;20140;-72
2023/06/28 07:47:36;;;;;;;5.75;2.42;;;;;;;16.62;100.00;98757.34;4187017;28;20612;-72
2023/06/28 07:49:38;;;;;;;4.60;2.17;;;;;;;16.59;100.00;98758.19;4191003;28;20035;-72
2023/06/28 07:51:38;;;;;;;5.00;2.40;;;;;;;16.70;100.00;98747.72;4186759;28;20053;-72
2023/06/28 07:53:39;;;;;;;6.10;2.35;;;;;;;16.72;100.00;98756.50;4175393;28;20098;-72
2023/06/28 07:55:39;;;;;;;7.95;2.70;;;;;;;16.69;98.62;98754.53;4189379;28;20135;-72
2023/06/28 07:57:40;;;;;;;4.78;1.98;;;;;;;16.60;99.26;98758.97;4179385;28;20090;-72
2023/06/28 07:59:40;;;;;;;3.70;1.75;;;;;;;16.54;97.74;98766.97;4176342;28;20037;-72
2023/06/28 08:01:40;;;;;;;6.43;1.85;;;;;;;16.54;97.97;98761.41;4175717;28;20041;-72
2023/06/28 08:03:41;;;;;;;4.40;2.20;;;;;;;16.67;97.49;98765.28;4175354;28;20081;-72
2023/06/28 08:05:41;;;;;;;3.22;1.83;;;;;;;16.73;98.12;98749.72;4175601;28;20045;-72
2023/06/28 08:07:42;;;;;;;5.80;2.58;;;;;;;16.83;97.44;98760.00;4175613;28;20044;-72
2023/06/28 08:09:42;;;;;;;5.65;2.45;;;;;;;16.93;95.09;98760.31;4175843;28;20578;-72
2023/06/28 08:11:43;;;;;;;2.53;1.90;;;;;;;16.93;97.16;98760.31;4177599;28;20090;-72
2023/06/28 08:13:43;;;;;;;3.20;1.88;;;;;;;16.78;98.10;98749.25;4189453;28;20036;-72
2023/06/28 08:15:44;;;;;;;3.80;1.90;;;;;;;16.78;94.44;98751.25;4178166;28;20081;-72
2023/06/28 08:17:45;;;;;;;5.28;2.25;;;;;;;16.71;94.74;98754.09;4175363;28;20052;-72
2023/06/28 08:19:45;;;;;;;3.65;2.08;;;;;;;16.82;96.29;98760.41;4175221;28;20045;-72
2023/06/28 08:21:45;;;;;;;3.30;1.65;;;;;;;16.86;94.66;98758.38;4175958;28;20037;-72
2023/06/28 08:23:46;;;;;;;5.95;2.00;;;;;;;17.00;88.93;98760.25;4188675;28;20045;-72
2023/06/28 08:25:46;;;;;;;7.95;2.00;;;;;;;17.10;89.78;98750.94;4186212;28;20060;-72
2023/06/28 08:27:46;;;;;;;3.85;1.50;;;;;;;17.21;89.39;98750.81;4175145;28;20071;-72
2023/06/28 08:29:46;;;;;;;5.55;2.78;;;;;;;17.20;89.96;98754.84;4175191;28;20282;-72
2023/06/28 08:31:47;;;;;;;4.47;2.15;;;;;;;17.26;90.12;98750.38;4175919;28;20040;-72
2023/06/28 08:33:47;;;;;;;4.45;2.05;;;;;;;17.18;89.80;98749.66;4174212;28;20059;-72
2023/06/28 08:35:47;;;;;;;6.13;2.58;;;;;;;17.22;88.49;98752.44;4180326;28;20045;-72
2023/06/28 08:37:48;;;;;;;3.63;2.30;;;;;;;17.26;88.13;98751.16;4175309;28;20455;-72
2023/06/28 08:39:48;;;;;;;3.38;2.20;;;;;;;17.22;89.13;98756.03;4175198;28;20037;-72
2023/06/28 08:41:51;;;;;;;4.47;1.63;;;;;;;17.09;89.74;98750.16;4175206;28;20146;-72
2023/06/28 08:43:52;;;;;;;2.13;1.40;;;;;;;17.16;90.28;98740.13;4185703;28;20075;-72
2023/06/28 08:45:53;;;;;;;3.47;1.30;;;;;;;17.16;83.73;98743.69;4188026;28;20204;-72
2023/06/28 08:47:54;;;;;;;5.90;1.60;;;;;;;17.30;86.00;98742.75;4190167;28;20040;-72
2023/06/28 08:49:55;;;;;;;2.63;1.67;;;;;;;17.38;84.54;98745.06;4189671;28;20550;-72
2023/06/28 08:51:56;;;;;;;4.97;2.10;;;;;;;17.36;85.76;98744.66;4189187;28;20119;-72
2023/06/28 08:53:56;;;;;;;3.00;1.83;;;;;;;17.51;87.68;98748.09;4189987;28;20056;-72
2023/06/28 08:55:59;;;;;;;3.03;1.75;;;;;;;17.47;87.39;98750.16;4189027;28;20437;-73
2023/06/28 08:58:02;;;;;;;3.72;1.77;;;;;;;17.49;88.86;98753.31;4180294;28;20127;-72
2023/06/28 09:00:05;;;;;;;;;;;;;;;17.39;87.21;98746.63;4175055;28;20457;-72
2023/06/28 09:02:08;;;;;;;4.70;1.55;;;;;;;17.40;88.22;98739.84;4184527;28;19961;-72
2023/06/28 09:04:09;;;;;;;3.03;1.70;;;;;;;17.47;88.41;98740.97;4188623;28;20368;-72
2023/06/28 09:06:09;;;;;;;2.70;1.65;;;;;;;17.23;84.93;98742.84;4174803;28;20345;-72
2023/06/28 09:08:11;;;;;;;3.53;1.60;;;;;;;17.18;87.43;98741.28;4174647;28;20350;-72
2023/06/28 09:10:11;;;;;;;2.47;1.60;;;;;;;17.17;86.22;98744.50;4175272;28;20364;-72
2023/06/28 09:12:12;;;;;;;2.80;1.63;;;;;;;17.30;86.65;98737.97;4188524;28;20028;-72
2023/06/28 09:14:12;;;;;;;2.55;1.30;;;;;;;17.37;83.17;98746.25;4187949;28;20060;-72
2023/06/28 09:16:14;;;;;;;3.08;1.30;;;;;;;17.55;85.25;98737.66;4174533;28;20708;-72
2023/06/28 09:18:15;;;;;;;2.85;1.35;;;;;;;17.69;78.90;98733.88;4174280;28;20140;-72
2023/06/28 09:20:19;;;;;;;3.63;1.40;;;;;;;17.71;78.66;98744.66;4174017;28;20384;-72
2023/06/28 09:22:20;;;;;;;2.00;1.20;;;;;;;17.86;80.62;98732.06;4174548;28;21050;-72